Time;durP1;ratioP1;P1;durP2;ratioP2;P2;SDS_P1;SDS_P2;PMS_P1;PMS_P2;Temp;Humidity;BMP_temperature;BMP_pressure;BME280_temperature;BME280_humidity;BME280_pressure;Samples;Min_cycle;Max_cycle;Signal;HPM_P1;HPM_P2
2022/06/02 00:01:55;;;;;;;1.40;0.80;;;;;;;10.49;100.00;100303.03;7391350;19;20472;-85
2022/06/02 00:04:24;;;;;;;3.85;1.85;;;;;;;10.42;100.00;100301.31;7392729;19;20047;-86
2022/06/02 00:06:59;;;;;;;0.70;0.70;;;;;;;10.33;100.00;100301.31;7389923;19;20074;-86
2022/06/02 00:09:44;;;;;;;0.60;0.60;;;;;;;10.27;100.00;100297.59;7392207;19;20023;-85
2022/06/02 00:12:32;;;;;;;3.65;1.50;;;;;;;10.24;100.00;100298.53;7391573;19;20014;-86
2022/06/02 00:15:26;;;;;;;3.22;1.23;;;;;;;10.26;100.00;100296.06;7391378;19;20504;-86
2022/06/02 00:18:09;;;;;;;1.23;1.13;;;;;;;10.25;100.00;100294.50;7390886;19;20019;-86
2022/06/02 00:20:55;;;;;;;2.53;1.35;;;;;;;10.24;100.00;100304.13;7390723;19;20019;-86
2022/06/02 00:23:23;;;;;;;0.65;0.65;;;;;;;10.22;100.00;100301.00;7393790;19;20546;-86
2022/06/02 00:26:16;;;;;;;1.42;0.93;;;;;;;10.19;100.00;100298.38;7390407;19;20023;-86
2022/06/02 00:29:30;;;;;;;2.33;1.38;;;;;;;10.14;100.00;100299.75;7393804;19;20023;-86
2022/06/02 00:32:24;;;;;;;3.13;1.63;;;;;;;10.16;100.00;100302.06;7389422;19;20015;-86
2022/06/02 00:35:15;;;;;;;0.85;0.47;;;;;;;10.12;100.00;100302.22;7394600;19;20479;-86
2022/06/02 00:37:47;;;;;;;1.30;1.20;;;;;;;10.09;100.00;100314.25;7398225;19;20010;-86
2022/06/02 00:40:14;;;;;;;2.88;1.20;;;;;;;9.96;100.00;100301.72;7398679;19;20015;-87
2022/06/02 00:42:56;;;;;;;3.70;1.60;;;;;;;9.97;100.00;100301.25;7400504;19;20035;-87
2022/06/02 00:45:23;;;;;;;1.20;1.10;;;;;;;9.98;100.00;100302.81;7398715;19;20037;-86
2022/06/02 00:47:58;;;;;;;2.40;0.98;;;;;;;9.99;100.00;100304.34;7399193;19;20017;-86
2022/06/02 00:50:48;;;;;;;0.68;0.55;;;;;;;9.90;100.00;100309.88;7397775;19;20394;-86
2022/06/02 00:53:27;;;;;;;0.50;0.50;;;;;;;9.80;100.00;100313.88;7398753;19;20380;-86
2022/06/02 00:59:31;;;;;;;2.33;1.83;;;;;;;9.70;100.00;100306.75;7401528;19;20015;-87
2022/06/02 01:01:57;;;;;;;0.93;0.73;;;;;;;9.79;100.00;100306.75;7400296;19;20007;-87
2022/06/02 01:04:23;;;;;;;2.05;1.00;;;;;;;9.77;100.00;100301.66;7403296;19;20587;-89
2022/06/02 01:07:08;;;;;;;1.42;0.70;;;;;;;9.72;100.00;100307.06;7399306;19;20047;-88
2022/06/02 01:09:42;;;;;;;0.80;0.77;;;;;;;9.64;100.00;100305.78;7407890;19;20007;-91
2022/06/02 01:12:26;;;;;;;1.48;0.88;;;;;;;9.57;100.00;100312.38;7417306;19;20018;-94
2022/06/02 01:15:05;;;;;;;1.10;0.68;;;;;;;9.48;100.00;100303.25;7412165;19;20098;-90
2022/06/02 01:17:58;;;;;;;1.70;1.00;;;;;;;9.43;100.00;100309.41;7400632;19;20491;-92
2022/06/02 01:20:44;;;;;;;3.40;1.42;;;;;;;9.42;100.00;100300.28;7400108;19;20106;-90
2022/06/02 01:23:35;;;;;;;2.65;0.88;;;;;;;9.37;100.00;100300.13;7397567;19;20082;-90
2022/06/02 01:26:25;;;;;;;1.13;1.07;;;;;;;9.34;100.00;100309.34;7398333;19;20727;-91
2022/06/02 01:29:17;;;;;;;1.20;0.87;;;;;;;9.27;100.00;100304.09;7399625;19;20019;-92
2022/06/02 01:31:53;;;;;;;1.48;1.27;;;;;;;9.23;100.00;100306.19;7399205;19;20010;-93
2022/06/02 01:34:40;;;;;;;0.75;0.75;;;;;;;9.23;100.00;100308.97;7401511;19;20031;-91
2022/06/02 01:37:23;;;;;;;0.77;0.73;;;;;;;9.17;100.00;100306.03;7397282;19;20051;-91
2022/06/02 01:40:07;;;;;;;2.47;1.42;;;;;;;9.12;100.00;100304.63;7398910;19;20101;-90
2022/06/02 01:42:41;;;;;;;3.53;1.13;;;;;;;9.12;100.00;100304.63;7402637;19;21190;-88
2022/06/02 01:45:26;;;;;;;0.68;0.68;;;;;;;9.10;100.00;100303.53;7399365;19;20020;-88
2022/06/02 01:48:08;;;;;;;1.02;1.00;;;;;;;9.04;100.00;100308.91;7398970;19;20011;-90
2022/06/02 01:50:37;;;;;;;0.77;0.77;;;;;;;8.98;100.00;100309.94;7399622;19;20341;-91
2022/06/02 01:53:33;;;;;;;1.25;1.13;;;;;;;8.90;100.00;100309.41;7398991;19;20014;-91
2022/06/02 01:56:08;;;;;;;3.47;0.98;;;;;;;8.74;100.00;100300.50;7399362;19;20007;-91
2022/06/02 01:58:34;;;;;;;1.38;0.98;;;;;;;8.77;100.00;100305.19;7398575;19;20517;-89
2022/06/02 02:01:28;;;;;;;4.50;1.60;;;;;;;8.84;100.00;100300.13;7399979;19;20081;-91
2022/06/02 02:03:55;;;;;;;1.60;1.17;;;;;;;8.75;100.00;100297.28;7400362;19;20014;-91
2022/06/02 02:06:38;;;;;;;1.85;0.93;;;;;;;8.85;100.00;100289.78;7399242;19;20018;-92
2022/06/02 02:09:19;;;;;;;2.70;1.45;;;;;;;8.83;100.00;100297.81;7399792;19;20131;-93
2022/06/02 02:11:47;;;;;;;1.88;1.08;;;;;;;8.81;100.00;100294.72;7400918;19;20006;-92
2022/06/02 02:14:23;;;;;;;6.07;1.90;;;;;;;8.79;100.00;100292.38;7400671;19;20035;-93
2022/06/02 02:17:08;;;;;;;4.95;1.65;;;;;;;8.76;100.00;100290.50;7396587;19;20015;-92
2022/06/02 02:19:47;;;;;;;1.50;1.35;;;;;;;8.74;100.00;100284.63;7398009;19;20090;-92
2022/06/02 02:22:22;;;;;;;0.85;0.73;;;;;;;8.72;100.00;100287.09;7395388;19;20038;-91
2022/06/02 02:25:04;;;;;;;1.60;1.50;;;;;;;8.70;100.00;100292.31;7399389;19;20085;-92
2022/06/02 02:28:02;;;;;;;2.55;0.70;;;;;;;8.66;100.00;100288.91;7398339;19;20011;-90
2022/06/02 02:30:28;;;;;;;1.98;1.58;;;;;;;8.63;100.00;100284.25;7398190;19;20014;-91
2022/06/02 02:33:23;;;;;;;1.77;1.17;;;;;;;8.59;100.00;100283.59;7397468;19;20029;-91
2022/06/02 02:36:13;;;;;;;3.85;1.45;;;;;;;8.56;100.00;100276.16;7395485;19;20028;-91
2022/06/02 02:38:49;;;;;;;1.73;1.63;;;;;;;8.55;100.00;100273.84;7396304;19;20039;-87
2022/06/02 02:41:35;;;;;;;4.28;1.30;;;;;;;8.55;100.00;100273.84;7395029;19;20116;-87
2022/06/02 02:44:04;;;;;;;2.75;1.02;;;;;;;8.43;100.00;100269.91;7398346;19;20010;-86
2022/06/02 02:46:37;;;;;;;2.75;1.73;;;;;;;8.35;100.00;100276.94;7398080;19;20104;-87
2022/06/02 02:49:54;;;;;;;3.80;1.02;;;;;;;8.27;100.00;100276.41;7391667;19;20052;-85
2022/06/02 02:52:45;;;;;;;1.17;0.95;;;;;;;8.34;100.00;100269.81;7391838;19;20022;-84
2022/06/02 02:55:17;;;;;;;3.88;0.75;;;;;;;8.27;100.00;100270.84;7391653;19;20011;-84
2022/06/02 02:58:25;;;;;;;2.75;1.02;;;;;;;8.21;100.00;100269.06;7392421;19;20022;-83
2022/06/02 03:01:11;;;;;;;1.05;0.52;;;;;;;8.11;100.00;100262.69;7387748;19;20022;-84
2022/06/02 03:03:43;;;;;;;1.05;0.95;;;;;;;8.15;100.00;100265.31;7391998;19;20356;-85
2022/06/02 03:06:26;;;;;;;0.80;0.80;;;;;;;8.12;100.00;100269.00;7392114;19;20019;-85
2022/06/02 03:09:02;;;;;;;1.55;1.45;;;;;;;8.08;100.00;100265.56;7391046;19;20451;-83
2022/06/02 03:11:46;;;;;;;3.28;1.33;;;;;;;7.92;100.00;100269.28;7392401;19;20033;-85
2022/06/02 03:14:30;;;;;;;1.30;0.98;;;;;;;7.89;100.00;100270.16;7392370;19;20011;-85
2022/06/02 03:17:08;;;;;;;3.00;1.75;;;;;;;7.87;100.00;100269.84;7389170;19;20022;-85
2022/06/02 03:19:48;;;;;;;1.95;1.52;;;;;;;7.87;100.00;100272.59;7390487;19;20667;-85
2022/06/02 03:22:55;;;;;;;1.05;1.05;;;;;;;7.83;100.00;100271.97;7388499;19;20498;-84
2022/06/02 03:26:00;;;;;;;2.83;1.02;;;;;;;7.82;100.00;100270.38;7391213;19;20022;-85
2022/06/02 03:28:47;;;;;;;1.08;0.88;;;;;;;7.79;100.00;100265.75;7389909;19;20018;-85
2022/06/02 03:31:31;;;;;;;1.38;1.02;;;;;;;7.68;100.00;100270.09;7386941;19;20074;-84
2022/06/02 03:34:24;;;;;;;1.20;1.10;;;;;;;7.59;100.00;100274.31;7389211;19;20021;-84
2022/06/02 03:37:09;;;;;;;0.73;0.68;;;;;;;7.49;100.00;100275.41;7389120;19;20035;-85
2022/06/02 03:39:35;;;;;;;1.35;1.25;;;;;;;7.45;100.00;100274.75;7389933;19;20022;-85
2022/06/02 03:42:07;;;;;;;1.30;1.20;;;;;;;7.43;100.00;100277.19;7391053;19;20354;-85
2022/06/02 03:45:03;;;;;;;1.23;1.13;;;;;;;7.44;100.00;100278.75;7392592;19;20078;-85
2022/06/02 03:47:38;;;;;;;0.90;0.90;;;;;;;7.40;100.00;100283.66;7391806;19;20489;-85
2022/06/02 03:50:10;;;;;;;2.42;1.30;;;;;;;7.45;100.00;100280.28;7389708;19;20030;-83
2022/06/02 03:52:54;;;;;;;2.85;1.42;;;;;;;7.48;100.00;100275.88;7389664;19;20094;-85
2022/06/02 03:55:27;;;;;;;1.55;1.23;;;;;;;7.50;100.00;100281.75;7390202;19;20076;-84
2022/06/02 03:58:21;;;;;;;2.00;1.15;;;;;;;7.49;100.00;100285.75;7387934;19;20041;-84
2022/06/02 04:01:09;;;;;;;1.75;0.90;;;;;;;7.52;100.00;100282.06;7389566;19;20026;-84
2022/06/02 04:03:45;;;;;;;7.03;0.98;;;;;;;7.53;100.00;100289.97;7388328;19;20669;-84
2022/06/02 04:06:29;;;;;;;1.98;1.88;;;;;;;7.47;100.00;100286.16;7387815;19;20539;-85
2022/06/02 04:09:35;;;;;;;1.55;1.45;;;;;;;7.54;100.00;100288.72;7388660;19;20363;-85
2022/06/02 04:15:04;;;;;;;8.73;1.52;;;;;;;7.54;100.00;100287.94;7415108;19;20022;-83
2022/06/02 04:17:42;;;;;;;2.03;1.38;;;;;;;7.56;100.00;100280.75;7397997;19;20014;-85
2022/06/02 04:20:35;;;;;;;0.98;0.98;;;;;;;7.59;100.00;100285.41;7397077;19;20114;-85
2022/06/02 04:23:17;;;;;;;1.85;1.52;;;;;;;7.58;100.00;100283.84;7395085;19;20010;-84
2022/06/02 04:25:49;;;;;;;;;;;;;;;7.50;100.00;100282.53;7395981;19;20021;-84
2022/06/02 04:28:19;;;;;;;1.80;1.27;;;;;;;7.44;100.00;100284.31;7397208;19;19930;-85
2022/06/02 04:31:15;;;;;;;1.02;1.00;;;;;;;7.41;100.00;100281.63;7395578;19;20045;-84
2022/06/02 04:34:06;;;;;;;2.47;1.65;;;;;;;7.41;100.00;100285.19;7395685;19;20010;-83
2022/06/02 04:36:50;;;;;;;3.05;1.23;;;;;;;7.35;100.00;100292.50;7394117;19;20007;-85
2022/06/02 04:39:27;;;;;;;2.13;0.80;;;;;;;7.37;100.00;100292.84;7396664;19;20504;-84
2022/06/02 04:42:15;;;;;;;1.83;1.13;;;;;;;7.37;100.00;100292.84;7397226;19;20019;-84
2022/06/02 04:45:12;;;;;;;1.45;1.35;;;;;;;7.41;100.00;100296.25;7394672;19;20010;-84
2022/06/02 04:47:55;;;;;;;0.98;0.98;;;;;;;7.47;100.00;100294.47;7393688;19;20033;-84
2022/06/02 04:50:27;;;;;;;0.60;0.60;;;;;;;7.54;100.00;100294.25;7395355;19;20034;-83
2022/06/02 04:52:59;;;;;;;1.10;0.80;;;;;;;7.49;100.00;100297.59;7393296;19;20014;-84
2022/06/02 04:55:41;;;;;;;1.73;1.55;;;;;;;7.58;100.00;100297.69;7394208;19;20095;-84
2022/06/02 04:58:19;;;;;;;2.45;1.27;;;;;;;7.69;100.00;100293.84;7395694;19;20073;-93
2022/06/02 05:01:16;;;;;;;4.00;2.20;;;;;;;7.75;100.00;100286.50;7392572;19;20507;-80
2022/06/02 05:04:08;;;;;;;1.90;1.50;;;;;;;7.84;100.00;100297.69;7390997;19;20014;-81
2022/06/02 05:06:52;;;;;;;0.93;0.93;;;;;;;7.93;100.00;100293.00;7389321;19;20481;-82
2022/06/02 05:09:35;;;;;;;4.75;1.98;;;;;;;7.95;100.00;100285.00;7391183;19;20072;-81
2022/06/02 05:12:04;;;;;;;3.85;1.67;;;;;;;8.09;100.00;100283.75;7391364;19;20014;-81
2022/06/02 05:14:34;;;;;;;3.35;2.17;;;;;;;8.13;100.00;100284.41;7391832;19;20476;-81
2022/06/02 05:17:19;;;;;;;1.30;1.20;;;;;;;8.23;100.00;100283.25;7388954;19;20895;-81
2022/06/02 05:20:19;;;;;;;7.22;3.25;;;;;;;8.24;100.00;100284.81;7392218;19;20019;-81
2022/06/02 05:23:07;;;;;;;6.20;1.60;;;;;;;8.59;100.00;100294.72;7388838;19;20050;-81
2022/06/02 05:25:48;;;;;;;6.55;2.30;;;;;;;8.69;100.00;100282.44;7390380;19;20030;-82
2022/06/02 05:28:41;;;;;;;5.03;1.60;;;;;;;8.57;100.00;100288.84;7390971;19;20025;-81
2022/06/02 05:31:35;;;;;;;3.80;1.95;;;;;;;8.64;100.00;100291.34;7391494;19;20038;-81
2022/06/02 05:34:53;;;;;;;4.68;1.20;;;;;;;8.75;100.00;100286.16;7390952;19;20010;-82
2022/06/02 05:38:00;;;;;;;1.10;0.82;;;;;;;8.82;100.00;100290.69;7386027;19;20014;-81
2022/06/02 05:40:41;;;;;;;2.50;1.02;;;;;;;8.89;100.00;100284.88;7388844;19;20021;-82
2022/06/02 05:43:30;;;;;;;1.10;0.73;;;;;;;8.97;100.00;100295.28;7392789;19;20014;-80
2022/06/02 05:46:02;;;;;;;7.03;1.20;;;;;;;9.04;100.00;100286.69;7387397;19;20052;-82
2022/06/02 05:48:47;;;;;;;3.60;2.65;;;;;;;9.11;100.00;100289.19;7390821;19;20025;-81
2022/06/02 05:51:18;;;;;;;5.30;2.00;;;;;;;9.27;100.00;100292.97;7387693;19;20019;-81
2022/06/02 05:53:58;;;;;;;10.27;2.20;;;;;;;9.31;100.00;100293.59;7391667;19;20023;-81
2022/06/02 05:56:50;;;;;;;3.80;1.58;;;;;;;9.55;100.00;100298.16;7388150;19;20341;-81
2022/06/02 05:59:22;;;;;;;2.65;1.42;;;;;;;9.69;100.00;100291.28;7389212;19;20042;-82
2022/06/02 06:02:14;;;;;;;5.55;1.67;;;;;;;9.83;100.00;100296.28;7389086;19;20037;-81
2022/06/02 06:05:06;;;;;;;;;;;;;;;9.90;100.00;100290.41;7392791;19;20014;-82
2022/06/02 06:08:11;;;;;;;5.40;1.85;;;;;;;10.16;100.00;100297.28;7386430;19;20679;-82
2022/06/02 06:11:11;;;;;;;2.90;2.28;;;;;;;10.33;100.00;100290.19;7387730;19;20026;-82
2022/06/02 06:13:57;;;;;;;3.87;2.03;;;;;;;10.52;100.00;100288.97;7389911;19;20396;-82
2022/06/02 06:16:39;;;;;;;6.95;3.17;;;;;;;10.62;100.00;100290.50;7385251;19;20018;-82
2022/06/02 06:19:37;;;;;;;2.95;1.63;;;;;;;10.72;100.00;100287.72;7386660;19;20492;-82
2022/06/02 06:22:34;;;;;;;4.45;1.08;;;;;;;10.82;100.00;100294.81;7388543;19;20023;-82
2022/06/02 06:25:06;;;;;;;3.55;1.23;;;;;;;10.91;100.00;100294.81;7388861;19;20018;-82
2022/06/02 06:27:49;;;;;;;2.53;1.73;;;;;;;10.99;100.00;100288.44;7386308;19;20014;-82
2022/06/02 06:30:52;;;;;;;4.65;2.20;;;;;;;11.11;100.00;100286.72;7389129;19;20022;-81
2022/06/02 06:33:47;;;;;;;3.08;1.95;;;;;;;11.21;100.00;100286.22;7389017;19;20022;-82
2022/06/02 06:36:38;;;;;;;2.42;1.30;;;;;;;10.07;100.00;100302.03;7386392;19;20370;-82
2022/06/02 06:39:39;;;;;;;1.58;1.45;;;;;;;10.00;100.00;100297.53;7387693;19;20029;-82
2022/06/02 06:42:25;;;;;;;;;;;;;;;10.11;100.00;100297.13;7391765;19;20038;-81
2022/06/02 06:45:30;;;;;;;2.53;1.55;;;;;;;10.27;100.00;100296.81;7388991;19;19926;-81
2022/06/02 06:48:06;;;;;;;8.30;1.92;;;;;;;10.39;100.00;100288.34;7389345;19;20086;-81
2022/06/02 06:50:40;;;;;;;3.20;1.55;;;;;;;10.53;100.00;100298.84;7388215;19;20372;-81
2022/06/02 06:53:31;;;;;;;3.55;1.83;;;;;;;10.68;100.00;100298.25;7387826;19;20022;-81
2022/06/02 06:56:26;;;;;;;4.10;2.05;;;;;;;10.81;100.00;100301.59;7386495;19;20574;-81
2022/06/02 06:59:12;;;;;;;7.97;1.60;;;;;;;11.13;100.00;100289.81;7386315;19;20019;-81
2022/06/02 07:01:57;;;;;;;2.58;1.30;;;;;;;11.34;100.00;100294.38;7387956;19;20074;-81
2022/06/02 07:04:43;;;;;;;4.68;1.42;;;;;;;11.54;100.00;100291.84;7389978;19;20037;-81
2022/06/02 07:07:40;;;;;;;4.45;2.30;;;;;;;11.72;100.00;100293.75;7385054;19;20358;-81
2022/06/02 07:10:17;;;;;;;3.88;1.95;;;;;;;11.86;100.00;100296.66;7388169;19;20046;-81
2022/06/02 07:13:11;;;;;;;4.55;2.83;;;;;;;12.06;100.00;100305.19;7388294;19;20094;-81
2022/06/02 07:15:38;;;;;;;3.97;1.67;;;;;;;12.18;100.00;100301.41;7386926;19;20022;-81
2022/06/02 07:18:23;;;;;;;5.88;1.65;;;;;;;12.29;100.00;100308.47;7385591;19;20035;-81
2022/06/02 07:21:14;;;;;;;3.30;1.25;;;;;;;12.43;100.00;100305.72;7384449;19;20646;-81
2022/06/02 07:24:06;;;;;;;2.92;2.13;;;;;;;12.59;100.00;100308.09;7388659;19;20039;-81
2022/06/02 07:26:41;;;;;;;5.55;1.50;;;;;;;12.72;100.00;100310.59;7398626;19;20033;-81
2022/06/02 07:29:26;;;;;;;2.47;1.23;;;;;;;12.90;100.00;100302.84;7394769;19;20111;-81
2022/06/02 07:31:55;;;;;;;3.90;1.52;;;;;;;14.23;100.00;100309.75;7392851;19;20018;-82
2022/06/02 07:34:41;;;;;;;2.10;0.95;;;;;;;14.94;100.00;100307.06;7391050;19;20022;-81
2022/06/02 07:37:19;;;;;;;4.20;1.58;;;;;;;15.29;100.00;100311.75;7386661;19;20402;-82
2022/06/02 07:40:05;;;;;;;3.03;1.73;;;;;;;15.39;100.00;100304.69;7387571;19;20022;-81
2022/06/02 07:43:17;;;;;;;2.97;1.75;;;;;;;15.86;100.00;100312.47;7388836;19;20078;-81
2022/06/02 07:45:51;;;;;;;;;;;;;;;16.05;100.00;100307.97;7383981;19;20718;-81
2022/06/02 07:48:26;;;;;;;7.75;1.40;;;;;;;16.12;100.00;100315.16;7387614;19;19914;-82
2022/06/02 07:51:02;;;;;;;4.25;1.40;;;;;;;16.01;100.00;100315.88;7386518;19;20791;-82
2022/06/02 07:54:05;;;;;;;1.95;0.77;;;;;;;16.23;100.00;100313.19;7385117;19;20043;-81
2022/06/02 07:57:10;;;;;;;2.85;1.77;;;;;;;16.37;100.00;100319.91;7384647;19;20052;-81
2022/06/02 08:00:02;;;;;;;4.10;1.17;;;;;;;16.45;100.00;100313.31;7381958;19;20026;-81
2022/06/02 08:03:08;;;;;;;3.13;1.88;;;;;;;16.46;100.00;100312.00;7384858;19;20025;-81
2022/06/02 08:06:06;;;;;;;6.13;2.03;;;;;;;16.57;100.00;100305.69;7384922;19;20010;-82
2022/06/02 08:08:43;;;;;;;2.67;1.08;;;;;;;16.66;100.00;100306.25;7386026;19;20029;-80
2022/06/02 08:11:56;;;;;;;3.40;1.25;;;;;;;16.99;100.00;100307.59;7384959;19;20022;-79
2022/06/02 08:14:57;;;;;;;2.70;1.40;;;;;;;17.24;100.00;100306.59;7383258;19;20018;-80
2022/06/02 08:17:55;;;;;;;4.20;0.93;;;;;;;17.65;100.00;100318.91;7382022;19;20024;-79
2022/06/02 08:20:31;;;;;;;2.92;1.52;;;;;;;17.67;100.00;100319.19;7383309;19;20103;-79
2022/06/02 08:23:25;;;;;;;6.05;1.73;;;;;;;17.87;100.00;100312.50;7383371;19;20029;-80
2022/06/02 08:25:57;;;;;;;1.35;0.85;;;;;;;18.07;100.00;100315.78;7386264;19;20026;-79
2022/06/02 08:28:36;;;;;;;3.15;1.02;;;;;;;18.19;100.00;100322.19;7385195;19;20063;-80
2022/06/02 08:31:21;;;;;;;3.15;1.13;;;;;;;18.49;100.00;100316.72;7385561;19;20078;-81
2022/06/02 08:33:59;;;;;;;3.88;1.33;;;;;;;18.72;100.00;100315.31;7385100;19;20006;-80
2022/06/02 08:36:30;;;;;;;3.35;1.42;;;;;;;19.01;100.00;100313.88;7383448;19;20098;-81
2022/06/02 08:39:33;;;;;;;5.13;1.30;;;;;;;19.18;100.00;100308.88;7385669;19;20724;-80
2022/06/02 08:42:36;;;;;;;3.13;0.85;;;;;;;19.32;100.00;100304.91;7386794;19;20014;-81
2022/06/02 08:45:11;;;;;;;2.97;0.82;;;;;;;19.43;100.00;100308.47;7388483;19;20032;-81
2022/06/02 08:48:14;;;;;;;2.75;1.20;;;;;;;19.52;100.00;100302.47;7384354;19;20035;-83
2022/06/02 08:51:08;;;;;;;4.18;0.88;;;;;;;19.47;100.00;100296.88;7385408;19;20367;-81
2022/06/02 08:54:12;;;;;;;3.72;0.65;;;;;;;19.63;100.00;100304.44;7384125;19;20023;-82
2022/06/02 08:57:01;;;;;;;2.15;0.75;;;;;;;19.89;100.00;100306.75;7391234;19;20026;-82
2022/06/02 08:59:49;;;;;;;1.45;0.77;;;;;;;20.01;100.00;100305.38;7392087;19;20021;-82
2022/06/02 09:02:40;;;;;;;2.45;0.95;;;;;;;20.09;100.00;100297.81;7395080;19;20014;-82
2022/06/02 09:05:38;;;;;;;5.75;1.20;;;;;;;20.23;100.00;100296.66;7394010;19;20039;-82
2022/06/02 09:08:29;;;;;;;6.80;0.98;;;;;;;20.44;100.00;100297.69;7392195;19;20014;-82
2022/06/02 09:11:14;;;;;;;3.65;1.67;;;;;;;20.53;100.00;100288.81;7390791;19;20021;-81
2022/06/02 09:14:03;;;;;;;1.95;1.13;;;;;;;20.68;100.00;100294.78;7391783;19;20046;-81
2022/06/02 09:16:51;;;;;;;3.95;1.45;;;;;;;20.69;100.00;100296.34;7391172;19;20082;-80
2022/06/02 09:19:34;;;;;;;2.28;1.08;;;;;;;21.00;100.00;100295.66;7392298;19;20037;-81
2022/06/02 09:22:09;;;;;;;1.95;1.15;;;;;;;21.01;100.00;100294.34;7389507;19;20014;-79
2022/06/02 09:25:17;;;;;;;3.05;1.05;;;;;;;20.74;100.00;100301.16;7392091;19;20015;-81
2022/06/02 09:28:02;;;;;;;2.72;0.98;;;;;;;21.00;100.00;100292.81;7386609;19;20380;-81
2022/06/02 09:30:43;;;;;;;2.50;0.57;;;;;;;21.26;100.00;100302.75;7389714;19;20014;-81
2022/06/02 09:33:53;;;;;;;0.85;0.40;;;;;;;21.58;100.00;100295.00;7391451;19;20018;-81
2022/06/02 09:36:50;;;;;;;1.80;0.93;;;;;;;21.81;100.00;100285.56;7388689;19;20018;-81
2022/06/02 09:40:13;;;;;;;1.38;0.73;;;;;;;21.88;100.00;100295.53;7391491;19;20078;-81
2022/06/02 09:43:17;;;;;;;0.95;0.20;;;;;;;21.35;100.00;100300.28;7389311;19;20023;-79
2022/06/02 09:46:02;;;;;;;1.60;0.40;;;;;;;21.26;100.00;100297.84;7386313;19;20010;-81
2022/06/02 09:48:39;;;;;;;1.73;0.82;;;;;;;21.39;100.00;100295.06;7391080;19;20048;-81
2022/06/02 09:51:47;;;;;;;2.72;0.90;;;;;;;21.57;100.00;100293.50;7390466;19;20030;-81
2022/06/02 09:54:53;;;;;;;2.17;0.70;;;;;;;21.59;100.00;100296.53;7389851;19;20057;-81
2022/06/02 09:57:56;;;;;;;3.70;0.68;;;;;;;21.73;100.00;100289.59;7391881;19;20018;-81
2022/06/02 10:01:01;;;;;;;3.15;1.38;;;;;;;22.00;100.00;100284.75;7389128;19;20044;-81
2022/06/02 10:03:33;;;;;;;1.67;0.88;;;;;;;22.22;100.00;100285.06;7387653;19;20011;-81
2022/06/02 10:06:02;;;;;;;1.50;0.47;;;;;;;22.44;100.00;100290.28;7388353;19;20371;-81
2022/06/02 10:08:42;;;;;;;5.07;1.02;;;;;;;22.53;100.00;100292.69;7387099;19;20022;-81
2022/06/02 10:11:24;;;;;;;0.83;0.50;;;;;;;22.79;97.05;100289.06;7389519;19;20039;-81
2022/06/02 10:14:03;;;;;;;0.88;0.57;;;;;;;23.01;97.11;100282.88;7389803;19;20292;-81
2022/06/02 10:16:44;;;;;;;2.28;0.98;;;;;;;23.41;96.53;100285.56;7388942;19;20123;-81
2022/06/02 10:19:42;;;;;;;2.42;0.60;;;;;;;23.44;90.02;100275.91;7388672;19;20014;-81
2022/06/02 10:22:27;;;;;;;1.05;0.70;;;;;;;23.59;91.89;100279.66;7389491;19;20018;-81
2022/06/02 10:25:15;;;;;;;2.60;0.43;;;;;;;23.48;91.99;100277.09;7388316;19;20014;-81
2022/06/02 10:28:04;;;;;;;1.63;0.65;;;;;;;23.81;94.00;100276.25;7388381;19;20528;-81
2022/06/02 10:30:48;;;;;;;3.40;0.60;;;;;;;23.23;91.16;100273.06;7388659;19;20021;-82
2022/06/02 10:33:45;;;;;;;2.30;0.50;;;;;;;22.86;92.44;100279.88;7391991;19;20033;-83
2022/06/02 10:36:23;;;;;;;2.78;1.08;;;;;;;22.25;91.78;100264.13;7392334;19;20389;-82
2022/06/02 10:39:04;;;;;;;2.00;0.52;;;;;;;22.14;95.25;100260.72;7391595;19;20064;-82
2022/06/02 10:41:52;;;;;;;3.03;0.95;;;;;;;22.51;96.70;100272.59;7389526;19;20033;-79
2022/06/02 10:44:29;;;;;;;0.98;0.43;;;;;;;22.80;92.46;100265.03;7393682;19;20043;-82
2022/06/02 10:47:20;;;;;;;3.00;1.02;;;;;;;23.02;91.75;100269.44;7388951;19;20010;-82
2022/06/02 10:50:17;;;;;;;2.20;0.55;;;;;;;23.16;94.15;100265.97;7388819;19;20016;-81
2022/06/02 10:53:11;;;;;;;1.45;0.57;;;;;;;23.26;95.12;100266.25;7389729;19;20387;-82
2022/06/02 10:56:08;;;;;;;1.23;0.50;;;;;;;23.60;87.07;100260.53;7388945;19;20018;-82
2022/06/02 10:58:57;;;;;;;0.73;0.35;;;;;;;23.18;85.43;100260.50;7387093;19;20575;-82
2022/06/02 11:01:50;;;;;;;1.60;0.55;;;;;;;23.27;87.50;100262.88;7387976;19;20379;-82
2022/06/02 11:04:34;;;;;;;2.05;0.43;;;;;;;23.28;89.46;100252.28;7391781;19;20018;-83
2022/06/02 11:07:19;;;;;;;0.73;0.35;;;;;;;23.25;86.60;100253.38;7389646;19;20018;-82
2022/06/02 11:09:51;;;;;;;1.85;0.40;;;;;;;23.77;87.17;100253.06;7390431;19;20749;-82
2022/06/02 11:12:17;;;;;;;1.70;0.28;;;;;;;24.11;82.29;100258.63;7391348;19;20022;-82
2022/06/02 11:15:09;;;;;;;0.75;0.52;;;;;;;24.17;82.47;100255.66;7390817;19;20591;-83
2022/06/02 11:17:56;;;;;;;3.03;0.80;;;;;;;24.35;84.42;100251.72;7389697;19;20026;-82
2022/06/02 11:21:02;;;;;;;0.65;0.30;;;;;;;24.53;87.30;100242.91;7387837;19;20019;-82
2022/06/02 11:23:38;;;;;;;4.72;1.00;;;;;;;25.08;87.47;100243.25;7390994;19;20085;-82
2022/06/02 11:26:10;;;;;;;0.45;0.30;;;;;;;25.37;88.37;100238.19;7388632;19;20015;-83
2022/06/02 11:29:04;;;;;;;1.15;0.25;;;;;;;24.94;82.33;100244.00;7388855;19;20018;-83
2022/06/02 11:31:45;;;;;;;1.13;0.22;;;;;;;24.73;77.40;100238.44;7391048;19;20018;-83
2022/06/02 11:34:26;;;;;;;0.65;0.43;;;;;;;24.91;83.29;100237.34;7391074;19;20049;-83
2022/06/02 11:37:14;;;;;;;1.13;0.17;;;;;;;25.12;79.23;100223.69;7387335;19;20018;-82
2022/06/02 11:40:04;;;;;;;2.72;0.10;;;;;;;25.20;83.14;100230.19;7388028;19;20018;-84
2022/06/02 11:42:33;;;;;;;;;;;;;;;25.27;77.67;100229.44;7393232;19;20602;-83
2022/06/02 11:45:17;;;;;;;0.35;0.05;;;;;;;25.14;76.90;100223.91;7387339;19;19926;-83
2022/06/02 11:47:49;;;;;;;0.88;0.17;;;;;;;24.92;78.61;100221.78;7390283;19;20018;-82
2022/06/02 11:51:08;;;;;;;1.08;0.47;;;;;;;24.52;77.96;100220.69;7390204;19;20018;-84
2022/06/02 11:53:57;;;;;;;1.55;0.47;;;;;;;24.41;78.04;100218.94;7387335;19;20491;-85
2022/06/02 11:56:59;;;;;;;0.90;0.22;;;;;;;24.47;80.38;100227.31;7391310;19;20067;-83
2022/06/02 11:59:34;;;;;;;1.98;0.43;;;;;;;24.51;77.08;100224.88;7391589;19;20019;-83
2022/06/02 12:02:03;;;;;;;1.55;0.50;;;;;;;24.41;76.37;100223.84;7389190;19;20393;-83
2022/06/02 12:04:56;;;;;;;0.85;0.30;;;;;;;24.80;76.24;100214.91;7393085;19;20035;-84
2022/06/02 12:07:55;;;;;;;1.05;0.63;;;;;;;24.62;73.14;100213.13;7388896;19;20028;-84
2022/06/02 12:10:49;;;;;;;0.80;0.45;;;;;;;24.17;79.08;100225.06;7393579;19;20043;-90
2022/06/02 12:13:52;;;;;;;8.02;0.60;;;;;;;23.98;76.78;100219.63;7395313;19;20017;-87
2022/06/02 12:16:49;;;;;;;0.55;0.10;;;;;;;23.93;78.61;100220.56;7388797;19;20014;-81
2022/06/02 12:19:38;;;;;;;0.98;0.50;;;;;;;23.86;75.37;100215.59;7391046;19;20074;-83
2022/06/02 12:22:14;;;;;;;0.40;0.10;;;;;;;23.76;77.01;100211.72;7389858;19;20365;-83
2022/06/02 12:25:16;;;;;;;0.68;0.30;;;;;;;23.91;79.87;100220.34;7391697;19;20359;-81
2022/06/02 12:28:01;;;;;;;1.58;0.32;;;;;;;24.10;79.26;100212.31;7388041;19;20048;-83
2022/06/02 12:31:02;;;;;;;0.95;0.35;;;;;;;24.53;81.02;100210.81;7393600;19;20034;-83
2022/06/02 12:33:37;;;;;;;2.35;0.50;;;;;;;24.82;76.48;100206.53;7396648;19;20018;-82
2022/06/02 12:36:22;;;;;;;0.65;0.38;;;;;;;24.72;74.70;100206.31;7395510;19;20359;-81
2022/06/02 12:39:02;;;;;;;0.60;0.30;;;;;;;24.76;75.19;100191.72;7398245;19;20320;-82
2022/06/02 12:41:40;;;;;;;2.00;0.30;;;;;;;24.95;78.96;100197.84;7395200;19;20081;-81
2022/06/02 12:44:34;;;;;;;0.80;0.32;;;;;;;25.08;78.62;100194.06;7397202;19;20027;-81
2022/06/02 12:47:22;;;;;;;0.57;0.20;;;;;;;25.22;78.71;100196.16;7393702;19;20029;-80
2022/06/02 12:50:23;;;;;;;1.33;0.28;;;;;;;25.47;79.95;100188.56;7394855;19;20018;-82
2022/06/02 12:53:08;;;;;;;0.80;0.40;;;;;;;25.58;79.94;100190.28;7389279;19;20473;-80
2022/06/02 12:55:44;;;;;;;0.20;0.10;;;;;;;25.68;77.69;100191.22;7393140;19;20023;-82
2022/06/02 12:58:28;;;;;;;0.75;0.32;;;;;;;25.50;73.95;100181.75;7392935;19;20011;-81